Cleveland, OH (44199)

4:59 PM EDT on April 23, 2017 (GMT -0400)
Detroit - Shoreway | | Change Station

Elev 0 ft 41.48 °N, 81.72 °W | Updated 8 minutes ago

Clear
Clear
60.4 °F
Feels Like 60.4 °F
N
0.6
Wind Variable Wind from SSW
Gusts 3.7 mph

Today
High -- | Low -- °F
--% Chance of Precip.
Yesterday
High -- | Low -- °F
Precip. -- in
Pressure 30.06 in
Visibility 10.0 miles
Clouds Clear
Dew Point 40 °F
Humidity 47%
Rainfall 0.00 in
Snow Depth Not available.
6:34 AM 8:16 PM
Waning Crescent, 10% visible
METAR KBKL 232053Z 03009KT 10SM CLR 12/06 A3005 RMK AO2 SLP177 T01170061 58015
Pressure 30.06 in
Visibility 10.0 miles
Clouds Clear
Dew Point 40 °F
Humidity 47%
Rainfall 0.00 in
Snow Depth Not available.
6:34 AM 8:16 PM
Waning Crescent, 10% visible
METAR KBKL 232053Z 03009KT 10SM CLR 12/06 A3005 RMK AO2 SLP177 T01170061 58015

Get Severe Weather Alerts

Thanks for signing up!

Be on the lookout for a verification email in your inbox.

You'll start receiving the daily forecast at 8 AM.

×

10-Day Weather Forecast

Almanac

Astronomy

Apr. 23, 2017 Rise Set
Actual Time
Civil Twilight
Nautical Twilight
Astronomical Twilight
Moon
Length of Visible Light
Length of Day
Tomorrow will be .
, % of the Moon is Illuminated

Today's Extremes

State Highs State Lows

Community

WunderPhotos

WunderBlog® & News

Nearby

Air Quality

  Air Quality AQ Index Pollutant
Not available.

Snow Depth

Station Depth Elevation

Earthquake Activity

City Distance Mag. Time & Date
Minimum magnitude displayed is 2.5.

Coastal Water Temperatures

Place Temperature

Stations

Nearby Weather Stations

Station Location Temp. Windchill Dew Point Humidity Wind Precip. Elev Updated Type
                   

Watches & Warnings

There are currently no watches in effect.